WetterOnline ( https://www.wetteronline.de )

Wetter aktuell Alt Zauche-Wußwerk

Aktuelles Wetter: Baruth (55m)

6-stündlich | Neueste Meldungen
Ortszeit Temperatur Wetter
Do, 30.05. 8:00 17.9° C bewölkt
Do, 30.05. 2:00 14.6° C bewölkt
Mi, 29.05. 20:00 18.0° C bedeckt
Mi, 29.05. 14:00 20.7° C bedeckt
Mi, 29.05. 8:00 14.7° C bedeckt
Mi, 29.05. 2:00 9.7° C Nebel
Di, 28.05. 20:00 16.2° C bewölkt
Di, 28.05. 14:00 15.8° C bewölkt
Ortszeit Temperatur Wetter
Do, 30.05. 8:00 17.9° C bewölkt
Do, 30.05. 7:50 17.9° C bewölkt
Do, 30.05. 7:40 17.3° C bedeckt
Do, 30.05. 7:30 16.7° C wolkig
Do, 30.05. 7:20 16.7° C wolkig
Do, 30.05. 7:10 15.9° C wolkig
Do, 30.05. 7:00 15.6° C leicht bewölkt
Do, 30.05. 6:30 14.2° C leicht bewölkt
Do, 30.05. 6:00 13.2° C leicht bewölkt
Do, 30.05. 5:30 13.2° C leicht bewölkt
Do, 30.05. 5:00 13.7° C bewölkt
Ortszeit Relative Feuchte Sichtweite
Do, 30.05. 8:00 75% 55 km
Do, 30.05. 2:00 91% 35 km
Mi, 29.05. 20:00 68% 60 km
Mi, 29.05. 14:00 47% >70 km
Mi, 29.05. 8:00 83% 35 km
Mi, 29.05. 2:00 97% 17 km
Di, 28.05. 20:00 80% 50 km
Di, 28.05. 14:00 79% 40 km
Ortszeit Relative Feuchte Sichtweite
Do, 30.05. 8:00 75% 55 km
Do, 30.05. 7:50 75% -
Do, 30.05. 7:40 77% -
Do, 30.05. 7:30 80% 65 km
Do, 30.05. 7:20 80% -
Do, 30.05. 7:10 81% -
Do, 30.05. 7:00 83% 40 km
Do, 30.05. 6:30 88% 40 km
Do, 30.05. 6:00 94% 30 km
Do, 30.05. 5:30 92% 30 km
Do, 30.05. 5:00 91% 35 km
Ortszeit Niederschlagsmenge Niederschlagsart
Do, 30.05. 8:00 0.2 l/m2 in 12 Std. Regen
Do, 30.05. 2:00 0.2 l/m2 in 6 Std. Regen
Mi, 29.05. 20:00 0.1 l/m2 in 12 Std. Regen
Mi, 29.05. 14:00 0.0 l/m2 in 6 Std. -
Mi, 29.05. 8:00 0.0 l/m2 in 12 Std. -
Mi, 29.05. 2:00 0.0 l/m2 in 6 Std. -
Di, 28.05. 20:00 6 l/m2 in 12 Std. Regen
Di, 28.05. 14:00 6 l/m2 in 6 Std. Regen
Ortszeit Niederschlagsmenge Niederschlagsart
Do, 30.05. 8:00 0.0 l/m2 in 1 Std. Regen
Do, 30.05. 7:50 keine Meldung -
Do, 30.05. 7:40 keine Meldung -
Do, 30.05. 7:30 0.0 l/m2 in 30 Min -
Do, 30.05. 7:20 keine Meldung -
Do, 30.05. 7:10 keine Meldung -
Do, 30.05. 7:00 0.0 l/m2 in 1 Std. -
Do, 30.05. 6:30 0.0 l/m2 in 30 Min -
Do, 30.05. 6:00 0.0 l/m2 in 1 Std. -
Do, 30.05. 5:30 0.0 l/m2 in 30 Min -
Do, 30.05. 5:00 0.0 l/m2 in 1 Std. Regen
Ortszeit Stärke Spitze Richtung
km/h Bft. km/h Grad Sektor
Do, 30.05. 8:00 4 1 14 140° SO
Do, 30.05. 2:00 7 2 14 120° SO
Mi, 29.05. 20:00 14 3 36 220° SW
Mi, 29.05. 14:00 18 3 32 190° S
Mi, 29.05. 8:00 11 2 14 110° O
Mi, 29.05. 2:00 6 1 13 110° O
Di, 28.05. 20:00 6 1 22 140° SO
Di, 28.05. 14:00 7 2 29 280° W
Ortszeit Stärke Spitze Richtung
km/h Bft. km/h Grad Sektor
Do, 30.05. 8:00 4 1 11 140° SO
Do, 30.05. 7:50 4 1 - 140° SO
Do, 30.05. 7:40 4 1 - 140° SO
Do, 30.05. 7:30 6 1 11 120° SO
Do, 30.05. 7:20 6 1 - 120° SO
Do, 30.05. 7:10 7 2 - 110° O
Do, 30.05. 7:00 7 2 14 110° O
Do, 30.05. 6:30 4 1 11 110° O
Do, 30.05. 6:00 6 1 11 110° O
Do, 30.05. 5:30 9 2 11 120° SO
Do, 30.05. 5:00 7 2 11 110° O
Ortszeit Untergrenze Bedeckung Gattung
total tief tief mittel hoch
Do, 30.05. 8:00 2400 m 8/8 7/8 - - -
Do, 30.05. 2:00 1500 m 7/8 7/8 - - -
Mi, 29.05. 20:00 2100 m 8/8 8/8 - - -
Mi, 29.05. 14:00 2100 m 8/8 8/8 - - -
Mi, 29.05. 8:00 6300 m 8/8 8/8 - - -
Mi, 29.05. 2:00 - 0/8 0/8 - - -
Di, 28.05. 20:00 2700 m 7/8 7/8 - - -
Di, 28.05. 14:00 480 m 8/8 7/8 - - -
Ortszeit Bedeckungsgrad in Achtel und Wolkenuntergrenze
Do, 30.05. 8:00 7(2400m) 8(3000m) 8(4500m)
Do, 30.05. 7:50 7(2400m) 8(3000m) 8(4500m)
Do, 30.05. 7:40 8
Do, 30.05. 7:30 6(3000m)
Do, 30.05. 7:20 6(3000m)
Do, 30.05. 7:10 5
Do, 30.05. 7:00 4(3300m)
Do, 30.05. 6:30 3(2100m)
Do, 30.05. 6:00 4(2100m)
Do, 30.05. 5:30 1(1500m) 4(3300m)
Do, 30.05. 5:00 5(1500m) 7(3300m) 8(3900m)
Ortszeit Luftdruck NN (hPa) Tendenz (hPa in 3 Std.)
Do, 30.05. 8:00 1007 - 0,5
Do, 30.05. 2:00 1009 - 1,0
Mi, 29.05. 20:00 1010 - 1,0
Mi, 29.05. 14:00 1013 - 1,7
Mi, 29.05. 8:00 1016 - 1,1
Mi, 29.05. 2:00 1018 - 0,6
Di, 28.05. 20:00 1018 + 0,5
Di, 28.05. 14:00 1018 + 0,7
Ortszeit Luftdruck NN (hPa) Tendenz (hPa in 3 Std.)
Do, 30.05. 8:00 1007 - 0,5
Do, 30.05. 7:50 1007 keine Meldung
Do, 30.05. 7:40 1007 keine Meldung
Do, 30.05. 7:30 1007 - 0,5
Do, 30.05. 7:20 1007 keine Meldung
Do, 30.05. 7:10 1007 keine Meldung
Do, 30.05. 7:00 1007 - 0,8
Do, 30.05. 6:30 1007 - 1,0
Do, 30.05. 6:00 1007 - 1,1
Do, 30.05. 5:30 1007 - 1,4
Do, 30.05. 5:00 1007 - 1,4
Ortszeit Schneehöhe (cm)
Do, 30.05. 8:00 0
Do, 30.05. 2:00 0
Mi, 29.05. 20:00 0
Mi, 29.05. 14:00 0
Mi, 29.05. 8:00 0
Mi, 29.05. 2:00 0
Di, 28.05. 20:00 0
Di, 28.05. 14:00 0
Ortszeit Schneehöhe (cm)
Do, 30.05. 8:00 0
Do, 30.05. 7:50 0
Do, 30.05. 7:40 -
Do, 30.05. 7:30 0
Do, 30.05. 7:20 0
Do, 30.05. 7:10 -
Do, 30.05. 7:00 0
Do, 30.05. 6:30 0
Do, 30.05. 6:00 0
Do, 30.05. 5:30 0
Do, 30.05. 5:00 0
Link zu dieser Seite / Seite empfehlen

Das Wetter in ...